sensor_id;sensor_type;location;lat;lon;timestamp;pressure;altitude;pressure_sealevel;temperature;humidity
2785;BME280;57944;48.722;9.316;2023-04-04T00:01:38;98845.09;;;-1.06;100.00
2785;BME280;57944;48.722;9.316;2023-04-04T00:04:08;98837.69;;;-1.21;100.00
2785;BME280;57944;48.722;9.316;2023-04-04T00:06:44;98839.19;;;-1.45;100.00
2785;BME280;57944;48.722;9.316;2023-04-04T00:09:14;98833.31;;;-1.44;100.00
2785;BME280;57944;48.722;9.316;2023-04-04T00:11:44;98829.16;;;-1.58;100.00
2785;BME280;57944;48.722;9.316;2023-04-04T00:14:14;98828.50;;;-1.47;100.00
2785;BME280;57944;48.722;9.316;2023-04-04T00:16:45;98821.81;;;-1.47;100.00
2785;BME280;57944;48.722;9.316;2023-04-04T00:19:15;98819.63;;;-1.66;100.00
2785;BME280;57944;48.722;9.316;2023-04-04T00:21:49;98817.41;;;-1.43;100.00
2785;BME280;57944;48.722;9.316;2023-04-04T00:24:21;98814.56;;;-1.51;100.00
2785;BME280;57944;48.722;9.316;2023-04-04T00:26:51;98822.97;;;-1.52;100.00
2785;BME280;57944;48.722;9.316;2023-04-04T00:29:21;98817.41;;;-1.43;100.00
2785;BME280;57944;48.722;9.316;2023-04-04T00:31:51;98816.88;;;-1.48;100.00
2785;BME280;57944;48.722;9.316;2023-04-04T00:34:22;98811.34;;;-1.66;100.00
2785;BME280;57944;48.722;9.316;2023-04-04T00:36:56;98810.28;;;-1.76;100.00
2785;BME280;57944;48.722;9.316;2023-04-04T00:39:28;98817.88;;;-1.78;100.00
2785;BME280;57944;48.722;9.316;2023-04-04T00:41:58;98810.16;;;-1.61;100.00
2785;BME280;57944;48.722;9.316;2023-04-04T00:44:30;98808.13;;;-1.68;100.00
2785;BME280;57944;48.722;9.316;2023-04-04T00:47:02;98810.06;;;-1.86;100.00
2785;BME280;57944;48.722;9.316;2023-04-04T00:49:33;98808.44;;;-1.87;100.00
2785;BME280;57944;48.722;9.316;2023-04-04T00:52:06;98803.81;;;-1.93;100.00
2785;BME280;57944;48.722;9.316;2023-04-04T00:54:38;98801.72;;;-2.14;100.00
2785;BME280;57944;48.722;9.316;2023-04-04T00:57:10;98801.16;;;-2.05;100.00
2785;BME280;57944;48.722;9.316;2023-04-04T00:59:41;98801.47;;;-1.82;100.00
2785;BME280;57944;48.722;9.316;2023-04-04T01:02:12;98794.69;;;-1.80;100.00
2785;BME280;57944;48.722;9.316;2023-04-04T01:04:43;98800.72;;;-1.70;100.00
2785;BME280;57944;48.722;9.316;2023-04-04T01:07:16;98801.53;;;-1.69;100.00
2785;BME280;57944;48.722;9.316;2023-04-04T01:09:49;98799.50;;;-1.77;100.00
2785;BME280;57944;48.722;9.316;2023-04-04T01:12:19;98788.88;;;-1.81;100.00
2785;BME280;57944;48.722;9.316;2023-04-04T01:14:51;98790.56;;;-2.08;100.00
2785;BME280;57944;48.722;9.316;2023-04-04T01:17:22;98794.81;;;-1.96;100.00
2785;BME280;57944;48.722;9.316;2023-04-04T01:20:01;98793.09;;;-1.81;100.00
2785;BME280;57944;48.722;9.316;2023-04-04T01:22:48;98795.16;;;-1.88;100.00
2785;BME280;57944;48.722;9.316;2023-04-04T01:25:31;98784.59;;;-1.78;100.00
2785;BME280;57944;48.722;9.316;2023-04-04T01:28:08;98789.00;;;-1.96;100.00
2785;BME280;57944;48.722;9.316;2023-04-04T01:30:39;98779.81;;;-1.96;100.00
2785;BME280;57944;48.722;9.316;2023-04-04T01:33:17;98781.38;;;-2.08;100.00
2785;BME280;57944;48.722;9.316;2023-04-04T01:35:59;98782.53;;;-2.13;100.00
2785;BME280;57944;48.722;9.316;2023-04-04T01:38:37;98787.63;;;-2.29;100.00
2785;BME280;57944;48.722;9.316;2023-04-04T01:41:12;98791.53;;;-2.11;100.00
2785;BME280;57944;48.722;9.316;2023-04-04T01:43:50;98785.63;;;-2.10;100.00
2785;BME280;57944;48.722;9.316;2023-04-04T01:46:21;98783.81;;;-1.93;100.00
2785;BME280;57944;48.722;9.316;2023-04-04T01:48:52;98785.47;;;-2.21;100.00
2785;BME280;57944;48.722;9.316;2023-04-04T01:51:29;98784.69;;;-2.36;100.00
2785;BME280;57944;48.722;9.316;2023-04-04T01:54:00;98783.53;;;-2.44;100.00
2785;BME280;57944;48.722;9.316;2023-04-04T01:56:32;98786.47;;;-2.52;100.00
2785;BME280;57944;48.722;9.316;2023-04-04T01:59:02;98789.22;;;-2.71;100.00
2785;BME280;57944;48.722;9.316;2023-04-04T02:01:33;98784.06;;;-2.82;100.00
2785;BME280;57944;48.722;9.316;2023-04-04T02:04:04;98787.34;;;-2.82;100.00
2785;BME280;57944;48.722;9.316;2023-04-04T02:06:38;98778.78;;;-3.06;100.00
2785;BME280;57944;48.722;9.316;2023-04-04T02:09:08;98795.75;;;-3.13;100.00
2785;BME280;57944;48.722;9.316;2023-04-04T02:11:43;98789.25;;;-3.16;100.00
2785;BME280;57944;48.722;9.316;2023-04-04T02:14:13;98793.94;;;-3.25;100.00
2785;BME280;57944;48.722;9.316;2023-04-04T02:16:43;98790.00;;;-3.29;100.00
2785;BME280;57944;48.722;9.316;2023-04-04T02:19:13;98795.50;;;-3.39;100.00
2785;BME280;57944;48.722;9.316;2023-04-04T02:21:43;98793.25;;;-3.43;100.00
2785;BME280;57944;48.722;9.316;2023-04-04T02:24:14;98795.13;;;-3.47;100.00
2785;BME280;57944;48.722;9.316;2023-04-04T02:26:46;98784.59;;;-3.52;100.00
2785;BME280;57944;48.722;9.316;2023-04-04T02:29:17;98791.03;;;-3.48;100.00
2785;BME280;57944;48.722;9.316;2023-04-04T02:31:47;98787.09;;;-3.52;100.00
2785;BME280;57944;48.722;9.316;2023-04-04T02:34:17;98796.41;;;-3.40;100.00
2785;BME280;57944;48.722;9.316;2023-04-04T02:36:50;98793.56;;;-3.33;100.00
2785;BME280;57944;48.722;9.316;2023-04-04T02:39:22;98792.66;;;-3.32;100.00
2785;BME280;57944;48.722;9.316;2023-04-04T02:41:55;98794.06;;;-3.43;100.00
2785;BME280;57944;48.722;9.316;2023-04-04T02:44:25;98784.97;;;-3.44;100.00
2785;BME280;57944;48.722;9.316;2023-04-04T02:46:56;98786.28;;;-3.52;100.00
2785;BME280;57944;48.722;9.316;2023-04-04T02:49:29;98788.28;;;-3.43;100.00
2785;BME280;57944;48.722;9.316;2023-04-04T02:51:59;98790.06;;;-3.61;100.00
2785;BME280;57944;48.722;9.316;2023-04-04T02:54:34;98792.91;;;-3.67;100.00
2785;BME280;57944;48.722;9.316;2023-04-04T02:57:10;98782.94;;;-3.83;100.00
2785;BME280;57944;48.722;9.316;2023-04-04T02:59:40;98790.47;;;-3.69;100.00
2785;BME280;57944;48.722;9.316;2023-04-04T03:02:10;98785.91;;;-3.76;100.00
2785;BME280;57944;48.722;9.316;2023-04-04T03:04:41;98786.53;;;-3.57;100.00
2785;BME280;57944;48.722;9.316;2023-04-04T03:07:12;98792.44;;;-3.44;100.00
2785;BME280;57944;48.722;9.316;2023-04-04T03:09:42;98784.94;;;-3.58;100.00
2785;BME280;57944;48.722;9.316;2023-04-04T03:12:19;98781.97;;;-3.65;100.00
2785;BME280;57944;48.722;9.316;2023-04-04T03:14:49;98788.16;;;-3.56;100.00
2785;BME280;57944;48.722;9.316;2023-04-04T03:17:23;98782.44;;;-3.58;100.00
2785;BME280;57944;48.722;9.316;2023-04-04T03:19:55;98780.09;;;-3.45;100.00
2785;BME280;57944;48.722;9.316;2023-04-04T03:22:25;98782.66;;;-3.47;100.00
2785;BME280;57944;48.722;9.316;2023-04-04T03:24:55;98775.47;;;-3.67;100.00
2785;BME280;57944;48.722;9.316;2023-04-04T03:27:29;98769.38;;;-3.77;100.00
2785;BME280;57944;48.722;9.316;2023-04-04T03:30:00;98776.75;;;-3.92;100.00
2785;BME280;57944;48.722;9.316;2023-04-04T03:32:32;98778.38;;;-3.91;100.00
2785;BME280;57944;48.722;9.316;2023-04-04T03:35:03;98773.03;;;-3.69;100.00
2785;BME280;57944;48.722;9.316;2023-04-04T03:37:33;98771.28;;;-3.83;100.00
2785;BME280;57944;48.722;9.316;2023-04-04T03:40:05;98774.13;;;-3.89;100.00
2785;BME280;57944;48.722;9.316;2023-04-04T03:42:38;98769.22;;;-4.06;100.00
2785;BME280;57944;48.722;9.316;2023-04-04T03:45:13;98780.13;;;-4.09;100.00
2785;BME280;57944;48.722;9.316;2023-04-04T03:47:43;98779.00;;;-4.03;100.00
2785;BME280;57944;48.722;9.316;2023-04-04T03:50:14;98777.72;;;-3.94;100.00
2785;BME280;57944;48.722;9.316;2023-04-04T03:52:50;98779.81;;;-3.87;100.00
2785;BME280;57944;48.722;9.316;2023-04-04T03:55:20;98777.66;;;-3.93;100.00
2785;BME280;57944;48.722;9.316;2023-04-04T03:57:53;98773.31;;;-4.05;100.00
2785;BME280;57944;48.722;9.316;2023-04-04T04:00:25;98771.56;;;-3.87;100.00
2785;BME280;57944;48.722;9.316;2023-04-04T04:02:56;98777.91;;;-3.82;100.00
2785;BME280;57944;48.722;9.316;2023-04-04T04:05:26;98774.13;;;-3.89;100.00
2785;BME280;57944;48.722;9.316;2023-04-04T04:07:56;98782.78;;;-3.80;100.00
2785;BME280;57944;48.722;9.316;2023-04-04T04:10:27;98772.25;;;-3.85;100.00
2785;BME280;57944;48.722;9.316;2023-04-04T04:13:00;98779.50;;;-3.80;100.00
2785;BME280;57944;48.722;9.316;2023-04-04T04:15:30;98781.81;;;-3.77;100.00
2785;BME280;57944;48.722;9.316;2023-04-04T04:18:05;98776.53;;;-3.87;100.00
2785;BME280;57944;48.722;9.316;2023-04-04T04:20:35;98776.59;;;-3.89;100.00
2785;BME280;57944;48.722;9.316;2023-04-04T04:23:06;98780.16;;;-3.93;100.00
2785;BME280;57944;48.722;9.316;2023-04-04T04:25:36;98772.56;;;-4.07;100.00
2785;BME280;57944;48.722;9.316;2023-04-04T04:28:16;98779.50;;;-4.12;100.00
2785;BME280;57944;48.722;9.316;2023-04-04T04:30:47;98779.97;;;-4.21;100.00
2785;BME280;57944;48.722;9.316;2023-04-04T04:33:26;98785.28;;;-4.12;100.00
2785;BME280;57944;48.722;9.316;2023-04-04T04:36:03;98786.25;;;-4.14;100.00
2785;BME280;57944;48.722;9.316;2023-04-04T04:38:45;98777.66;;;-4.09;100.00
2785;BME280;57944;48.722;9.316;2023-04-04T04:41:15;98780.38;;;-4.13;100.00
2785;BME280;57944;48.722;9.316;2023-04-04T04:43:51;98781.44;;;-4.17;100.00
2785;BME280;57944;48.722;9.316;2023-04-04T04:46:24;98785.91;;;-4.24;100.00
2785;BME280;57944;48.722;9.316;2023-04-04T04:48:55;98783.66;;;-4.13;100.00
2785;BME280;57944;48.722;9.316;2023-04-04T04:51:28;98785.91;;;-4.08;100.00
2785;BME280;57944;48.722;9.316;2023-04-04T04:53:59;98788.72;;;-3.98;100.00
2785;BME280;57944;48.722;9.316;2023-04-04T04:56:31;98788.97;;;-4.03;100.00
2785;BME280;57944;48.722;9.316;2023-04-04T04:59:10;98785.75;;;-3.89;100.00
2785;BME280;57944;48.722;9.316;2023-04-04T05:01:43;98787.13;;;-3.84;100.00
2785;BME280;57944;48.722;9.316;2023-04-04T05:04:15;98792.34;;;-3.88;100.00
2785;BME280;57944;48.722;9.316;2023-04-04T05:06:59;98788.16;;;-3.88;100.00
2785;BME280;57944;48.722;9.316;2023-04-04T05:09:30;98794.09;;;-3.74;100.00
2785;BME280;57944;48.722;9.316;2023-04-04T05:12:01;98799.25;;;-3.62;100.00
2785;BME280;57944;48.722;9.316;2023-04-04T05:14:42;98801.22;;;-3.52;100.00
2785;BME280;57944;48.722;9.316;2023-04-04T05:17:12;98797.38;;;-3.58;100.00
2785;BME280;57944;48.722;9.316;2023-04-04T05:19:42;98797.38;;;-3.58;100.00
2785;BME280;57944;48.722;9.316;2023-04-04T05:22:19;98801.16;;;-3.51;100.00
2785;BME280;57944;48.722;9.316;2023-04-04T05:24:51;98797.78;;;-3.50;100.00
2785;BME280;57944;48.722;9.316;2023-04-04T05:27:24;98802.09;;;-3.38;100.00
2785;BME280;57944;48.722;9.316;2023-04-04T05:30:00;98803.53;;;-3.33;100.00
2785;BME280;57944;48.722;9.316;2023-04-04T05:32:43;98800.28;;;-3.20;100.00
2785;BME280;57944;48.722;9.316;2023-04-04T05:35:21;98799.63;;;-3.23;100.00
2785;BME280;57944;48.722;9.316;2023-04-04T05:37:54;98799.91;;;-2.98;100.00
2785;BME280;57944;48.722;9.316;2023-04-04T05:40:24;98800.91;;;-2.72;100.00
2785;BME280;57944;48.722;9.316;2023-04-04T05:43:07;98809.41;;;-2.31;100.00
2785;BME280;57944;48.722;9.316;2023-04-04T05:45:57;98806.88;;;-2.17;100.00
2785;BME280;57944;48.722;9.316;2023-04-04T05:48:34;98807.50;;;-1.72;100.00
2785;BME280;57944;48.722;9.316;2023-04-04T05:51:04;98814.69;;;-1.13;100.00
2785;BME280;57944;48.722;9.316;2023-04-04T05:53:48;98817.78;;;-0.07;100.00
2785;BME280;57944;48.722;9.316;2023-04-04T05:56:23;98814.53;;;1.11;96.78
2785;BME280;57944;48.722;9.316;2023-04-04T05:58:56;98817.47;;;2.40;88.59
2785;BME280;57944;48.722;9.316;2023-04-04T06:01:32;98818.09;;;3.58;67.63
2785;BME280;57944;48.722;9.316;2023-04-04T06:04:09;98815.38;;;4.31;58.00
2785;BME280;57944;48.722;9.316;2023-04-04T06:06:39;98823.88;;;4.78;56.09
2785;BME280;57944;48.722;9.316;2023-04-04T06:09:09;98822.28;;;4.48;55.40
2785;BME280;57944;48.722;9.316;2023-04-04T06:11:39;98819.13;;;4.85;54.65
2785;BME280;57944;48.722;9.316;2023-04-04T06:14:11;98819.28;;;5.30;50.82
2785;BME280;57944;48.722;9.316;2023-04-04T06:16:46;98824.09;;;5.98;49.33
2785;BME280;57944;48.722;9.316;2023-04-04T06:19:16;98813.25;;;5.78;54.13
2785;BME280;57944;48.722;9.316;2023-04-04T06:21:47;98823.13;;;6.63;48.67
2785;BME280;57944;48.722;9.316;2023-04-04T06:24:18;98815.56;;;7.07;46.91
2785;BME280;57944;48.722;9.316;2023-04-04T06:26:51;98816.81;;;7.03;46.24
2785;BME280;57944;48.722;9.316;2023-04-04T06:29:24;98816.19;;;7.61;45.15
2785;BME280;57944;48.722;9.316;2023-04-04T06:32:00;98821.22;;;7.95;44.74
2785;BME280;57944;48.722;9.316;2023-04-04T06:34:37;98811.41;;;7.58;43.93
2785;BME280;57944;48.722;9.316;2023-04-04T06:37:09;98807.00;;;8.19;44.91
2785;BME280;57944;48.722;9.316;2023-04-04T06:39:51;98813.59;;;8.62;41.87
2785;BME280;57944;48.722;9.316;2023-04-04T06:42:25;98811.00;;;9.20;41.17
2785;BME280;57944;48.722;9.316;2023-04-04T06:45:00;98818.69;;;8.79;40.73
2785;BME280;57944;48.722;9.316;2023-04-04T06:47:33;98817.09;;;7.94;42.23
2785;BME280;57944;48.722;9.316;2023-04-04T06:50:06;98814.31;;;8.30;44.00
2785;BME280;57944;48.722;9.316;2023-04-04T06:52:39;98812.25;;;8.25;44.11
2785;BME280;57944;48.722;9.316;2023-04-04T06:55:10;98816.72;;;7.38;42.14
2785;BME280;57944;48.722;9.316;2023-04-04T06:57:40;98808.91;;;7.06;42.57
2785;BME280;57944;48.722;9.316;2023-04-04T07:00:12;98809.53;;;7.68;46.63
2785;BME280;57944;48.722;9.316;2023-04-04T07:02:45;98805.22;;;8.03;40.32
2785;BME280;57944;48.722;9.316;2023-04-04T07:05:16;98801.09;;;8.02;40.56
2785;BME280;57944;48.722;9.316;2023-04-04T07:07:50;98805.59;;;8.33;40.17
2785;BME280;57944;48.722;9.316;2023-04-04T07:10:20;98805.44;;;7.33;40.94
2785;BME280;57944;48.722;9.316;2023-04-04T07:12:50;98803.28;;;6.94;41.99
2785;BME280;57944;48.722;9.316;2023-04-04T07:15:21;98803.72;;;7.42;42.97
2785;BME280;57944;48.722;9.316;2023-04-04T07:17:54;98803.06;;;7.05;44.13
2785;BME280;57944;48.722;9.316;2023-04-04T07:20:24;98806.03;;;7.01;43.37
2785;BME280;57944;48.722;9.316;2023-04-04T07:22:56;98810.03;;;6.67;45.94
2785;BME280;57944;48.722;9.316;2023-04-04T07:25:26;98805.53;;;6.79;45.45
2785;BME280;57944;48.722;9.316;2023-04-04T07:27:57;98813.19;;;7.05;44.54
2785;BME280;57944;48.722;9.316;2023-04-04T07:30:38;98813.13;;;6.97;45.45
2785;BME280;57944;48.722;9.316;2023-04-04T07:33:11;98814.91;;;6.61;42.79
2785;BME280;57944;48.722;9.316;2023-04-04T07:35:42;98802.94;;;6.17;50.97
2785;BME280;57944;48.722;9.316;2023-04-04T07:38:13;98806.00;;;6.75;44.10
2785;BME280;57944;48.722;9.316;2023-04-04T07:40:43;98804.59;;;7.58;42.50
2785;BME280;57944;48.722;9.316;2023-04-04T07:43:13;98804.78;;;8.24;40.79
2785;BME280;57944;48.722;9.316;2023-04-04T07:45:43;98807.53;;;9.99;38.00
2785;BME280;57944;48.722;9.316;2023-04-04T07:48:16;98803.19;;;9.77;38.64
2785;BME280;57944;48.722;9.316;2023-04-04T07:50:48;98814.53;;;9.58;39.32
2785;BME280;57944;48.722;9.316;2023-04-04T07:53:19;98809.91;;;10.32;37.04
2785;BME280;57944;48.722;9.316;2023-04-04T07:55:49;98812.34;;;9.86;39.63
2785;BME280;57944;48.722;9.316;2023-04-04T07:58:19;98805.63;;;10.24;37.05
2785;BME280;57944;48.722;9.316;2023-04-04T08:00:50;98817.28;;;10.73;37.71
2785;BME280;57944;48.722;9.316;2023-04-04T08:03:23;98812.81;;;10.29;38.05
2785;BME280;57944;48.722;9.316;2023-04-04T08:05:58;98801.72;;;9.43;39.58
2785;BME280;57944;48.722;9.316;2023-04-04T08:08:29;98802.63;;;8.78;40.02
2785;BME280;57944;48.722;9.316;2023-04-04T08:10:59;98814.06;;;8.58;39.58
2785;BME280;57944;48.722;9.316;2023-04-04T08:13:30;98807.16;;;9.32;40.39
2785;BME280;57944;48.722;9.316;2023-04-04T08:16:00;98803.53;;;9.66;38.23
2785;BME280;57944;48.722;9.316;2023-04-04T08:18:32;98825.00;;;8.99;39.92
2785;BME280;57944;48.722;9.316;2023-04-04T08:21:03;98813.91;;;9.00;39.16
2785;BME280;57944;48.722;9.316;2023-04-04T08:23:33;98809.53;;;9.81;37.52
2785;BME280;57944;48.722;9.316;2023-04-04T08:26:03;98807.97;;;9.72;38.82
2785;BME280;57944;48.722;9.316;2023-04-04T08:28:33;98803.44;;;9.90;38.23
2785;BME280;57944;48.722;9.316;2023-04-04T08:31:04;98812.13;;;9.73;37.86
2785;BME280;57944;48.722;9.316;2023-04-04T08:33:42;98817.38;;;10.02;39.15
2785;BME280;57944;48.722;9.316;2023-04-04T08:36:14;98813.63;;;9.90;39.22
2785;BME280;57944;48.722;9.316;2023-04-04T08:38:45;98801.91;;;10.12;36.50
2785;BME280;57944;48.722;9.316;2023-04-04T08:41:16;98805.88;;;10.61;36.45
2785;BME280;57944;48.722;9.316;2023-04-04T08:43:46;98803.78;;;11.47;34.75
2785;BME280;57944;48.722;9.316;2023-04-04T08:46:21;98802.84;;;11.18;35.66
2785;BME280;57944;48.722;9.316;2023-04-04T08:48:55;98806.16;;;10.66;39.24
2785;BME280;57944;48.722;9.316;2023-04-04T08:51:25;98807.38;;;11.08;36.61
2785;BME280;57944;48.722;9.316;2023-04-04T08:53:58;98796.16;;;10.64;36.62
2785;BME280;57944;48.722;9.316;2023-04-04T08:56:28;98795.22;;;10.80;35.72
2785;BME280;57944;48.722;9.316;2023-04-04T08:58:59;98804.56;;;11.92;34.54
2785;BME280;57944;48.722;9.316;2023-04-04T09:14:38;98799.59;;;12.97;33.02
2785;BME280;57944;48.722;9.316;2023-04-04T09:17:10;98804.84;;;14.07;31.98
2785;BME280;57944;48.722;9.316;2023-04-04T09:19:40;98810.13;;;13.92;36.42
2785;BME280;57944;48.722;9.316;2023-04-04T09:22:10;98808.28;;;13.73;31.68
2785;BME280;57944;48.722;9.316;2023-04-04T09:24:41;98803.53;;;13.63;30.15
2785;BME280;57944;48.722;9.316;2023-04-04T09:27:12;98797.78;;;12.63;31.05
2785;BME280;57944;48.722;9.316;2023-04-04T09:29:47;98811.06;;;13.30;34.20
2785;BME280;57944;48.722;9.316;2023-04-04T09:32:19;98805.94;;;13.30;33.18
2785;BME280;57944;48.722;9.316;2023-04-04T09:34:52;98813.69;;;13.43;31.58
2785;BME280;57944;48.722;9.316;2023-04-04T09:37:23;98805.66;;;14.07;31.93
2785;BME280;57944;48.722;9.316;2023-04-04T09:39:54;98801.56;;;14.46;30.09
2785;BME280;57944;48.722;9.316;2023-04-04T09:42:27;98804.91;;;15.78;29.10
2785;BME280;57944;48.722;9.316;2023-04-04T09:45:00;98811.25;;;16.14;27.20
2785;BME280;57944;48.722;9.316;2023-04-04T09:47:31;98816.19;;;14.92;29.02
2785;BME280;57944;48.722;9.316;2023-04-04T09:50:02;98811.44;;;13.27;29.98
2785;BME280;57944;48.722;9.316;2023-04-04T09:52:33;98808.66;;;13.00;32.80
2785;BME280;57944;48.722;9.316;2023-04-04T09:55:05;98809.88;;;11.16;33.51
2785;BME280;57944;48.722;9.316;2023-04-04T09:57:35;98800.09;;;10.67;34.54
2785;BME280;57944;48.722;9.316;2023-04-04T10:00:11;98797.19;;;11.52;33.96
2785;BME280;57944;48.722;9.316;2023-04-04T10:02:46;98802.06;;;13.12;32.60
2785;BME280;57944;48.722;9.316;2023-04-04T10:05:17;98801.53;;;13.24;30.88
2785;BME280;57944;48.722;9.316;2023-04-04T10:07:49;98797.91;;;12.83;31.38
2785;BME280;57944;48.722;9.316;2023-04-04T10:10:20;98795.19;;;12.85;29.83
2785;BME280;57944;48.722;9.316;2023-04-04T10:12:51;98797.34;;;13.16;30.87
2785;BME280;57944;48.722;9.316;2023-04-04T10:15:34;98792.19;;;13.09;30.85
2785;BME280;57944;48.722;9.316;2023-04-04T10:18:06;98787.53;;;14.16;30.02
2785;BME280;57944;48.722;9.316;2023-04-04T10:20:37;98788.53;;;13.60;30.03
2785;BME280;57944;48.722;9.316;2023-04-04T10:23:08;98791.25;;;12.89;31.98
2785;BME280;57944;48.722;9.316;2023-04-04T10:25:39;98790.00;;;12.78;32.12
2785;BME280;57944;48.722;9.316;2023-04-04T10:28:09;98779.50;;;12.02;30.61
2785;BME280;57944;48.722;9.316;2023-04-04T10:30:48;98787.16;;;12.94;30.35
2785;BME280;57944;48.722;9.316;2023-04-04T10:33:39;98777.03;;;12.30;30.57
2785;BME280;57944;48.722;9.316;2023-04-04T10:36:20;98791.31;;;11.37;31.74
2785;BME280;57944;48.722;9.316;2023-04-04T10:38:59;98785.78;;;10.81;32.66
2785;BME280;57944;48.722;9.316;2023-04-04T10:41:31;98779.69;;;10.67;32.67
2785;BME280;57944;48.722;9.316;2023-04-04T10:44:11;98769.34;;;10.68;36.07
2785;BME280;57944;48.722;9.316;2023-04-04T10:46:50;98775.00;;;10.93;32.68
2785;BME280;57944;48.722;9.316;2023-04-04T10:49:21;98773.34;;;11.60;31.79
2785;BME280;57944;48.722;9.316;2023-04-04T10:51:52;98770.34;;;10.82;33.65
2785;BME280;57944;48.722;9.316;2023-04-04T10:54:27;98770.47;;;11.84;35.14
2785;BME280;57944;48.722;9.316;2023-04-04T10:56:58;98763.81;;;12.48;31.65
2785;BME280;57944;48.722;9.316;2023-04-04T10:59:30;98767.19;;;12.77;33.36
2785;BME280;57944;48.722;9.316;2023-04-04T11:02:03;98760.81;;;13.01;30.73
2785;BME280;57944;48.722;9.316;2023-04-04T11:04:36;98758.66;;;12.41;32.49
2785;BME280;57944;48.722;9.316;2023-04-04T11:07:13;98757.94;;;11.38;31.80
2785;BME280;57944;48.722;9.316;2023-04-04T11:09:47;98757.41;;;10.23;33.59
2785;BME280;57944;48.722;9.316;2023-04-04T11:12:25;98752.41;;;8.88;36.01
2785;BME280;57944;48.722;9.316;2023-04-04T11:15:05;98753.56;;;8.45;36.88
2785;BME280;57944;48.722;9.316;2023-04-04T11:18:00;98751.03;;;8.61;36.19
2785;BME280;57944;48.722;9.316;2023-04-04T11:20:54;98750.69;;;9.76;35.59
2785;BME280;57944;48.722;9.316;2023-04-04T11:23:24;98750.16;;;10.58;33.93
2785;BME280;57944;48.722;9.316;2023-04-04T11:25:55;98745.75;;;11.70;31.94
2785;BME280;57944;48.722;9.316;2023-04-04T11:28:42;98743.41;;;11.39;31.75
2785;BME280;57944;48.722;9.316;2023-04-04T11:31:25;98756.88;;;10.88;33.46
2785;BME280;57944;48.722;9.316;2023-04-04T11:34:02;98748.34;;;10.20;34.12
2785;BME280;57944;48.722;9.316;2023-04-04T11:36:50;98747.84;;;11.81;31.91
2785;BME280;57944;48.722;9.316;2023-04-04T11:39:24;98738.88;;;12.28;33.47
2785;BME280;57944;48.722;9.316;2023-04-04T11:42:00;98745.75;;;13.12;30.19
2785;BME280;57944;48.722;9.316;2023-04-04T11:44:40;98759.06;;;13.29;29.67
2785;BME280;57944;48.722;9.316;2023-04-04T11:47:10;98750.13;;;13.18;28.76
2785;BME280;57944;48.722;9.316;2023-04-04T11:49:45;98746.50;;;13.06;30.14
2785;BME280;57944;48.722;9.316;2023-04-04T11:52:16;98741.56;;;12.20;30.65
2785;BME280;57944;48.722;9.316;2023-04-04T11:54:47;98730.25;;;11.21;32.47
2785;BME280;57944;48.722;9.316;2023-04-04T11:57:19;98728.19;;;10.57;33.12
2785;BME280;57944;48.722;9.316;2023-04-04T11:59:50;98729.69;;;10.66;33.15
2785;BME280;57944;48.722;9.316;2023-04-04T12:02:24;98733.66;;;11.43;32.02
2785;BME280;57944;48.722;9.316;2023-04-04T12:05:01;98733.56;;;12.51;32.33
2785;BME280;57944;48.722;9.316;2023-04-04T12:07:33;98734.16;;;13.16;29.26
2785;BME280;57944;48.722;9.316;2023-04-04T12:10:04;98734.59;;;13.68;29.32
2785;BME280;57944;48.722;9.316;2023-04-04T12:12:36;98724.81;;;12.67;31.98
2785;BME280;57944;48.722;9.316;2023-04-04T12:15:08;98724.00;;;12.95;29.80
2785;BME280;57944;48.722;9.316;2023-04-04T12:17:44;98725.38;;;12.13;30.66
2785;BME280;57944;48.722;9.316;2023-04-04T12:20:21;98720.00;;;12.29;30.48
2785;BME280;57944;48.722;9.316;2023-04-04T12:22:51;98726.47;;;12.04;30.73
2785;BME280;57944;48.722;9.316;2023-04-04T12:25:22;98716.25;;;12.04;31.83
2785;BME280;57944;48.722;9.316;2023-04-04T12:27:54;98719.94;;;12.23;31.77
2785;BME280;57944;48.722;9.316;2023-04-04T12:30:27;98723.22;;;12.38;30.50
2785;BME280;57944;48.722;9.316;2023-04-04T12:32:57;98721.06;;;12.98;29.18
2785;BME280;57944;48.722;9.316;2023-04-04T12:35:31;98710.59;;;12.58;29.57
2785;BME280;57944;48.722;9.316;2023-04-04T12:38:03;98715.28;;;12.83;30.74
2785;BME280;57944;48.722;9.316;2023-04-04T12:40:37;98704.69;;;11.87;33.82
2785;BME280;57944;48.722;9.316;2023-04-04T12:43:08;98705.31;;;10.48;33.73
2785;BME280;57944;48.722;9.316;2023-04-04T12:45:49;98711.41;;;9.47;34.86
2785;BME280;57944;48.722;9.316;2023-04-04T12:48:25;98705.44;;;8.52;36.13
2785;BME280;57944;48.722;9.316;2023-04-04T12:50:59;98708.59;;;8.21;36.46
2785;BME280;57944;48.722;9.316;2023-04-04T12:53:30;98701.97;;;8.44;38.61
2785;BME280;57944;48.722;9.316;2023-04-04T12:56:02;98692.59;;;8.12;36.25
2785;BME280;57944;48.722;9.316;2023-04-04T12:58:33;98682.72;;;7.84;36.83
2785;BME280;57944;48.722;9.316;2023-04-04T13:01:04;98682.59;;;7.27;37.36
2785;BME280;57944;48.722;9.316;2023-04-04T13:03:34;98687.91;;;7.58;37.31
2785;BME280;57944;48.722;9.316;2023-04-04T13:06:12;98688.97;;;7.39;37.90
2785;BME280;57944;48.722;9.316;2023-04-04T13:08:48;98684.94;;;7.79;37.12
2785;BME280;57944;48.722;9.316;2023-04-04T13:11:19;98673.31;;;8.91;38.97
2785;BME280;57944;48.722;9.316;2023-04-04T13:13:59;98669.94;;;10.31;33.67
2785;BME280;57944;48.722;9.316;2023-04-04T13:16:31;98673.00;;;10.93;32.86
2785;BME280;57944;48.722;9.316;2023-04-04T13:19:02;98669.53;;;12.10;31.62
2785;BME280;57944;48.722;9.316;2023-04-04T13:21:38;98672.34;;;12.78;29.81
2785;BME280;57944;48.722;9.316;2023-04-04T13:24:09;98669.03;;;12.49;29.39
2785;BME280;57944;48.722;9.316;2023-04-04T13:26:39;98677.75;;;12.96;29.92
2785;BME280;57944;48.722;9.316;2023-04-04T13:29:09;98675.31;;;12.47;28.77
2785;BME280;57944;48.722;9.316;2023-04-04T13:31:42;98673.50;;;13.10;29.21
2785;BME280;57944;48.722;9.316;2023-04-04T13:34:12;98664.19;;;12.96;29.52
2785;BME280;57944;48.722;9.316;2023-04-04T13:36:45;98665.22;;;13.90;27.98
2785;BME280;57944;48.722;9.316;2023-04-04T13:39:15;98659.97;;;12.47;29.68
2785;BME280;57944;48.722;9.316;2023-04-04T13:41:46;98660.25;;;12.30;29.38
2785;BME280;57944;48.722;9.316;2023-04-04T13:44:16;98655.03;;;12.80;29.06
2785;BME280;57944;48.722;9.316;2023-04-04T13:46:46;98659.69;;;13.11;28.94
2785;BME280;57944;48.722;9.316;2023-04-04T13:49:17;98653.22;;;14.17;28.57
2785;BME280;57944;48.722;9.316;2023-04-04T13:51:50;98648.88;;;13.91;27.60
2785;BME280;57944;48.722;9.316;2023-04-04T13:54:20;98640.81;;;14.14;29.46